sensor_id;sensor_type;location;lat;lon;timestamp;temperature;humidity
7155;DHT22;3619;53.784;10.440;2022-10-31T00:00:46;13.00;99.90
7155;DHT22;3619;53.784;10.440;2022-10-31T00:03:13;13.00;99.90
7155;DHT22;3619;53.784;10.440;2022-10-31T00:05:41;13.00;99.90
7155;DHT22;3619;53.784;10.440;2022-10-31T00:08:18;13.00;99.90
7155;DHT22;3619;53.784;10.440;2022-10-31T00:10:46;13.00;99.90
7155;DHT22;3619;53.784;10.440;2022-10-31T00:13:14;12.90;99.90
7155;DHT22;3619;53.784;10.440;2022-10-31T00:15:42;13.00;99.90
7155;DHT22;3619;53.784;10.440;2022-10-31T00:18:12;13.00;99.90
7155;DHT22;3619;53.784;10.440;2022-10-31T00:20:41;13.00;99.90
7155;DHT22;3619;53.784;10.440;2022-10-31T00:23:08;13.10;99.90
7155;DHT22;3619;53.784;10.440;2022-10-31T00:25:38;13.10;99.90
7155;DHT22;3619;53.784;10.440;2022-10-31T00:28:07;13.20;99.90
7155;DHT22;3619;53.784;10.440;2022-10-31T00:30:35;13.30;99.90
7155;DHT22;3619;53.784;10.440;2022-10-31T00:33:03;13.30;99.90
7155;DHT22;3619;53.784;10.440;2022-10-31T00:35:35;13.40;99.90
7155;DHT22;3619;53.784;10.440;2022-10-31T00:38:02;13.50;99.90
7155;DHT22;3619;53.784;10.440;2022-10-31T00:40:31;13.50;99.90
7155;DHT22;3619;53.784;10.440;2022-10-31T00:43:01;13.50;99.90
7155;DHT22;3619;53.784;10.440;2022-10-31T00:45:28;13.50;99.90
7155;DHT22;3619;53.784;10.440;2022-10-31T00:47:55;13.60;99.90
7155;DHT22;3619;53.784;10.440;2022-10-31T00:50:22;13.50;99.90
7155;DHT22;3619;53.784;10.440;2022-10-31T00:52:51;13.60;99.90
7155;DHT22;3619;53.784;10.440;2022-10-31T00:55:19;13.60;99.90
7155;DHT22;3619;53.784;10.440;2022-10-31T00:57:48;13.60;99.90
7155;DHT22;3619;53.784;10.440;2022-10-31T01:00:15;13.60;99.90
7155;DHT22;3619;53.784;10.440;2022-10-31T01:02:44;13.60;99.90
7155;DHT22;3619;53.784;10.440;2022-10-31T01:05:11;13.50;99.90
7155;DHT22;3619;53.784;10.440;2022-10-31T01:07:41;13.60;99.90
7155;DHT22;3619;53.784;10.440;2022-10-31T01:10:10;13.60;99.90
7155;DHT22;3619;53.784;10.440;2022-10-31T01:12:37;13.60;99.90
7155;DHT22;3619;53.784;10.440;2022-10-31T01:15:05;13.60;99.90
7155;DHT22;3619;53.784;10.440;2022-10-31T01:17:34;13.60;99.90
7155;DHT22;3619;53.784;10.440;2022-10-31T01:20:01;13.70;99.90
7155;DHT22;3619;53.784;10.440;2022-10-31T01:22:29;13.70;99.90
7155;DHT22;3619;53.784;10.440;2022-10-31T01:24:55;13.70;99.90
7155;DHT22;3619;53.784;10.440;2022-10-31T01:27:24;13.70;99.90
7155;DHT22;3619;53.784;10.440;2022-10-31T01:29:52;13.70;99.90
7155;DHT22;3619;53.784;10.440;2022-10-31T01:32:19;13.70;99.90
7155;DHT22;3619;53.784;10.440;2022-10-31T01:34:45;13.70;99.90
7155;DHT22;3619;53.784;10.440;2022-10-31T01:37:12;13.60;99.90
7155;DHT22;3619;53.784;10.440;2022-10-31T01:39:40;13.60;99.90
7155;DHT22;3619;53.784;10.440;2022-10-31T01:42:11;13.60;99.90
7155;DHT22;3619;53.784;10.440;2022-10-31T01:44:58;13.60;99.90
7155;DHT22;3619;53.784;10.440;2022-10-31T01:47:34;13.50;99.90
7155;DHT22;3619;53.784;10.440;2022-10-31T01:50:06;13.60;99.90
7155;DHT22;3619;53.784;10.440;2022-10-31T01:52:38;13.50;99.90
7155;DHT22;3619;53.784;10.440;2022-10-31T01:55:12;13.50;99.90
7155;DHT22;3619;53.784;10.440;2022-10-31T01:57:42;13.50;99.90
7155;DHT22;3619;53.784;10.440;2022-10-31T02:00:13;13.50;99.90
7155;DHT22;3619;53.784;10.440;2022-10-31T02:02:40;13.50;99.90
7155;DHT22;3619;53.784;10.440;2022-10-31T02:05:10;13.50;99.90
7155;DHT22;3619;53.784;10.440;2022-10-31T02:07:45;13.40;99.90
7155;DHT22;3619;53.784;10.440;2022-10-31T02:10:13;13.50;99.90
7155;DHT22;3619;53.784;10.440;2022-10-31T02:12:41;13.50;99.90
7155;DHT22;3619;53.784;10.440;2022-10-31T02:15:09;13.40;99.90
7155;DHT22;3619;53.784;10.440;2022-10-31T02:17:37;13.40;99.90
7155;DHT22;3619;53.784;10.440;2022-10-31T02:20:12;13.40;99.90
7155;DHT22;3619;53.784;10.440;2022-10-31T02:25:53;13.40;99.90
7155;DHT22;3619;53.784;10.440;2022-10-31T02:28:45;13.40;99.90
7155;DHT22;3619;53.784;10.440;2022-10-31T02:31:25;13.40;99.90
7155;DHT22;3619;53.784;10.440;2022-10-31T02:33:59;13.40;99.90
7155;DHT22;3619;53.784;10.440;2022-10-31T02:36:32;13.30;99.90
7155;DHT22;3619;53.784;10.440;2022-10-31T02:39:13;13.30;99.90
7155;DHT22;3619;53.784;10.440;2022-10-31T02:41:49;13.30;99.90
7155;DHT22;3619;53.784;10.440;2022-10-31T02:44:32;13.30;99.90
7155;DHT22;3619;53.784;10.440;2022-10-31T02:47:09;13.30;99.90
7155;DHT22;3619;53.784;10.440;2022-10-31T02:49:42;13.40;99.90
7155;DHT22;3619;53.784;10.440;2022-10-31T02:52:17;13.30;99.90
7155;DHT22;3619;53.784;10.440;2022-10-31T02:54:45;13.40;99.90
7155;DHT22;3619;53.784;10.440;2022-10-31T02:57:14;13.40;99.90
7155;DHT22;3619;53.784;10.440;2022-10-31T02:59:47;13.40;99.90
7155;DHT22;3619;53.784;10.440;2022-10-31T03:02:34;13.40;99.90
7155;DHT22;3619;53.784;10.440;2022-10-31T03:05:18;13.40;99.90
7155;DHT22;3619;53.784;10.440;2022-10-31T03:07:59;13.40;99.90
7155;DHT22;3619;53.784;10.440;2022-10-31T03:10:33;13.30;99.90
7155;DHT22;3619;53.784;10.440;2022-10-31T03:13:07;13.30;99.90
7155;DHT22;3619;53.784;10.440;2022-10-31T03:15:37;13.40;99.90
7155;DHT22;3619;53.784;10.440;2022-10-31T03:18:08;13.30;99.90
7155;DHT22;3619;53.784;10.440;2022-10-31T03:20:38;13.30;99.90
7155;DHT22;3619;53.784;10.440;2022-10-31T03:23:11;13.30;99.90
7155;DHT22;3619;53.784;10.440;2022-10-31T03:25:39;13.30;99.90
7155;DHT22;3619;53.784;10.440;2022-10-31T03:28:10;13.30;99.90
7155;DHT22;3619;53.784;10.440;2022-10-31T03:30:43;13.30;99.90
7155;DHT22;3619;53.784;10.440;2022-10-31T03:33:16;13.30;99.90
7155;DHT22;3619;53.784;10.440;2022-10-31T03:35:47;13.30;99.90
7155;DHT22;3619;53.784;10.440;2022-10-31T03:38:18;13.30;99.90
7155;DHT22;3619;53.784;10.440;2022-10-31T03:40:47;13.30;99.90
7155;DHT22;3619;53.784;10.440;2022-10-31T03:43:18;13.40;99.90
7155;DHT22;3619;53.784;10.440;2022-10-31T03:45:48;13.40;99.90
7155;DHT22;3619;53.784;10.440;2022-10-31T03:48:18;13.40;99.90
7155;DHT22;3619;53.784;10.440;2022-10-31T03:50:58;13.40;99.90
7155;DHT22;3619;53.784;10.440;2022-10-31T03:53:32;13.40;99.90
7155;DHT22;3619;53.784;10.440;2022-10-31T03:56:02;13.40;99.90
7155;DHT22;3619;53.784;10.440;2022-10-31T03:58:35;13.40;99.90
7155;DHT22;3619;53.784;10.440;2022-10-31T04:01:06;13.40;99.90
7155;DHT22;3619;53.784;10.440;2022-10-31T04:03:37;13.40;99.90
7155;DHT22;3619;53.784;10.440;2022-10-31T04:06:08;13.30;99.90
7155;DHT22;3619;53.784;10.440;2022-10-31T04:08:40;13.30;99.90
7155;DHT22;3619;53.784;10.440;2022-10-31T04:11:11;13.30;99.90
7155;DHT22;3619;53.784;10.440;2022-10-31T04:13:42;13.30;99.90
7155;DHT22;3619;53.784;10.440;2022-10-31T04:16:10;13.30;99.90
7155;DHT22;3619;53.784;10.440;2022-10-31T04:18:41;13.30;99.90
7155;DHT22;3619;53.784;10.440;2022-10-31T04:21:08;13.30;99.90
7155;DHT22;3619;53.784;10.440;2022-10-31T04:23:36;13.20;99.90
7155;DHT22;3619;53.784;10.440;2022-10-31T04:26:03;13.30;99.90
7155;DHT22;3619;53.784;10.440;2022-10-31T04:28:32;13.20;99.90
7155;DHT22;3619;53.784;10.440;2022-10-31T04:30:59;13.20;99.90
7155;DHT22;3619;53.784;10.440;2022-10-31T04:33:26;13.20;99.90
7155;DHT22;3619;53.784;10.440;2022-10-31T04:35:57;13.10;99.90
7155;DHT22;3619;53.784;10.440;2022-10-31T04:38:25;13.10;99.90
7155;DHT22;3619;53.784;10.440;2022-10-31T04:40:52;13.10;99.90
7155;DHT22;3619;53.784;10.440;2022-10-31T04:43:19;13.10;99.90
7155;DHT22;3619;53.784;10.440;2022-10-31T04:45:46;13.00;99.90
7155;DHT22;3619;53.784;10.440;2022-10-31T04:48:12;13.00;99.90
7155;DHT22;3619;53.784;10.440;2022-10-31T04:50:41;13.00;99.90
7155;DHT22;3619;53.784;10.440;2022-10-31T04:53:10;13.00;99.90
7155;DHT22;3619;53.784;10.440;2022-10-31T04:55:37;13.00;99.90
7155;DHT22;3619;53.784;10.440;2022-10-31T04:58:08;13.00;99.90
7155;DHT22;3619;53.784;10.440;2022-10-31T05:00:35;12.90;99.90
7155;DHT22;3619;53.784;10.440;2022-10-31T05:03:02;13.00;99.90
7155;DHT22;3619;53.784;10.440;2022-10-31T05:05:30;13.00;99.90
7155;DHT22;3619;53.784;10.440;2022-10-31T05:07:57;13.00;99.90
7155;DHT22;3619;53.784;10.440;2022-10-31T05:10:28;13.00;99.90
7155;DHT22;3619;53.784;10.440;2022-10-31T05:12:57;13.00;99.90
7155;DHT22;3619;53.784;10.440;2022-10-31T05:15:25;13.00;99.90
7155;DHT22;3619;53.784;10.440;2022-10-31T05:17:53;13.00;99.90
7155;DHT22;3619;53.784;10.440;2022-10-31T05:20:22;13.00;99.90
7155;DHT22;3619;53.784;10.440;2022-10-31T05:22:50;13.00;99.90
7155;DHT22;3619;53.784;10.440;2022-10-31T05:25:29;13.00;99.90
7155;DHT22;3619;53.784;10.440;2022-10-31T05:28:12;13.00;99.90
7155;DHT22;3619;53.784;10.440;2022-10-31T05:30:42;13.00;99.90
7155;DHT22;3619;53.784;10.440;2022-10-31T05:33:12;13.10;99.90
7155;DHT22;3619;53.784;10.440;2022-10-31T05:35:38;13.00;99.90
7155;DHT22;3619;53.784;10.440;2022-10-31T05:38:05;13.00;99.90
7155;DHT22;3619;53.784;10.440;2022-10-31T05:40:33;13.10;99.90
7155;DHT22;3619;53.784;10.440;2022-10-31T05:43:00;13.10;99.90
7155;DHT22;3619;53.784;10.440;2022-10-31T05:45:27;13.00;99.90
7155;DHT22;3619;53.784;10.440;2022-10-31T05:47:57;13.10;99.90
7155;DHT22;3619;53.784;10.440;2022-10-31T05:50:25;13.10;99.90
7155;DHT22;3619;53.784;10.440;2022-10-31T05:52:57;13.10;99.90
7155;DHT22;3619;53.784;10.440;2022-10-31T05:55:25;13.10;99.90
7155;DHT22;3619;53.784;10.440;2022-10-31T05:57:54;13.00;99.90
7155;DHT22;3619;53.784;10.440;2022-10-31T06:00:21;13.10;99.90
7155;DHT22;3619;53.784;10.440;2022-10-31T06:02:53;13.00;99.90
7155;DHT22;3619;53.784;10.440;2022-10-31T06:05:24;13.00;99.90
7155;DHT22;3619;53.784;10.440;2022-10-31T06:07:52;13.00;99.90
7155;DHT22;3619;53.784;10.440;2022-10-31T06:10:19;13.00;99.90
7155;DHT22;3619;53.784;10.440;2022-10-31T06:12:46;13.00;99.90
7155;DHT22;3619;53.784;10.440;2022-10-31T06:15:15;13.00;99.90
7155;DHT22;3619;53.784;10.440;2022-10-31T06:17:44;13.10;99.90
7155;DHT22;3619;53.784;10.440;2022-10-31T06:20:11;13.10;99.90
7155;DHT22;3619;53.784;10.440;2022-10-31T06:22:38;13.10;99.90
7155;DHT22;3619;53.784;10.440;2022-10-31T06:25:05;13.10;99.90
7155;DHT22;3619;53.784;10.440;2022-10-31T06:27:32;13.10;99.90
7155;DHT22;3619;53.784;10.440;2022-10-31T06:29:59;13.10;99.90
7155;DHT22;3619;53.784;10.440;2022-10-31T06:32:27;13.10;99.90
7155;DHT22;3619;53.784;10.440;2022-10-31T06:34:54;13.10;99.90
7155;DHT22;3619;53.784;10.440;2022-10-31T06:37:21;13.10;99.90
7155;DHT22;3619;53.784;10.440;2022-10-31T06:39:48;13.10;99.90
7155;DHT22;3619;53.784;10.440;2022-10-31T06:42:16;13.10;99.90
7155;DHT22;3619;53.784;10.440;2022-10-31T06:44:44;13.10;99.90
7155;DHT22;3619;53.784;10.440;2022-10-31T06:47:11;13.20;99.90
7155;DHT22;3619;53.784;10.440;2022-10-31T06:49:41;13.10;99.90
7155;DHT22;3619;53.784;10.440;2022-10-31T06:52:08;13.10;99.90
7155;DHT22;3619;53.784;10.440;2022-10-31T06:54:34;13.20;99.90
7155;DHT22;3619;53.784;10.440;2022-10-31T06:57:01;13.10;99.90
7155;DHT22;3619;53.784;10.440;2022-10-31T06:59:28;13.10;99.90
7155;DHT22;3619;53.784;10.440;2022-10-31T07:02:01;13.20;99.90
7155;DHT22;3619;53.784;10.440;2022-10-31T07:04:27;13.20;99.90
7155;DHT22;3619;53.784;10.440;2022-10-31T07:06:57;13.20;99.90
7155;DHT22;3619;53.784;10.440;2022-10-31T07:09:23;13.20;99.90
7155;DHT22;3619;53.784;10.440;2022-10-31T07:11:52;13.30;99.90
7155;DHT22;3619;53.784;10.440;2022-10-31T07:14:19;13.30;99.90
7155;DHT22;3619;53.784;10.440;2022-10-31T07:16:48;13.30;99.90
7155;DHT22;3619;53.784;10.440;2022-10-31T07:19:16;13.30;99.90
7155;DHT22;3619;53.784;10.440;2022-10-31T07:21:43;13.30;99.90
7155;DHT22;3619;53.784;10.440;2022-10-31T07:24:11;13.30;99.90
7155;DHT22;3619;53.784;10.440;2022-10-31T07:26:38;13.30;99.90
7155;DHT22;3619;53.784;10.440;2022-10-31T07:29:07;13.30;99.90
7155;DHT22;3619;53.784;10.440;2022-10-31T07:31:37;13.20;99.90
7155;DHT22;3619;53.784;10.440;2022-10-31T07:34:04;13.30;99.90
7155;DHT22;3619;53.784;10.440;2022-10-31T07:36:31;13.30;99.90
7155;DHT22;3619;53.784;10.440;2022-10-31T07:38:57;13.30;99.90
7155;DHT22;3619;53.784;10.440;2022-10-31T07:41:26;13.30;99.90
7155;DHT22;3619;53.784;10.440;2022-10-31T07:43:53;13.40;99.90
7155;DHT22;3619;53.784;10.440;2022-10-31T07:46:21;13.30;99.90
7155;DHT22;3619;53.784;10.440;2022-10-31T07:48:48;13.30;99.90
7155;DHT22;3619;53.784;10.440;2022-10-31T07:51:14;13.30;99.90
7155;DHT22;3619;53.784;10.440;2022-10-31T07:53:41;13.30;99.90
7155;DHT22;3619;53.784;10.440;2022-10-31T07:56:09;13.30;99.90
7155;DHT22;3619;53.784;10.440;2022-10-31T07:58:38;13.20;99.90
7155;DHT22;3619;53.784;10.440;2022-10-31T08:01:05;13.20;99.90
7155;DHT22;3619;53.784;10.440;2022-10-31T08:03:34;13.20;99.90
7155;DHT22;3619;53.784;10.440;2022-10-31T08:06:01;13.20;99.90
7155;DHT22;3619;53.784;10.440;2022-10-31T08:08:29;13.20;99.90
7155;DHT22;3619;53.784;10.440;2022-10-31T08:10:57;13.10;99.90
7155;DHT22;3619;53.784;10.440;2022-10-31T08:13:25;13.10;99.90
7155;DHT22;3619;53.784;10.440;2022-10-31T08:15:53;13.10;99.90
7155;DHT22;3619;53.784;10.440;2022-10-31T08:18:21;13.10;99.90
7155;DHT22;3619;53.784;10.440;2022-10-31T08:20:49;13.10;99.90
7155;DHT22;3619;53.784;10.440;2022-10-31T08:23:16;13.10;99.90
7155;DHT22;3619;53.784;10.440;2022-10-31T08:25:43;13.20;99.90
7155;DHT22;3619;53.784;10.440;2022-10-31T08:28:12;13.20;99.90
7155;DHT22;3619;53.784;10.440;2022-10-31T08:30:40;13.30;99.90
7155;DHT22;3619;53.784;10.440;2022-10-31T08:33:11;13.20;99.90
7155;DHT22;3619;53.784;10.440;2022-10-31T08:35:38;13.30;99.90
7155;DHT22;3619;53.784;10.440;2022-10-31T08:38:06;13.30;99.90
7155;DHT22;3619;53.784;10.440;2022-10-31T08:40:33;13.30;99.90
7155;DHT22;3619;53.784;10.440;2022-10-31T08:43:02;13.30;99.90
7155;DHT22;3619;53.784;10.440;2022-10-31T08:45:31;13.20;99.90
7155;DHT22;3619;53.784;10.440;2022-10-31T08:48:00;13.30;99.90
7155;DHT22;3619;53.784;10.440;2022-10-31T08:50:30;13.20;99.90
7155;DHT22;3619;53.784;10.440;2022-10-31T08:53:01;13.10;99.90
7155;DHT22;3619;53.784;10.440;2022-10-31T08:55:28;13.10;99.90
7155;DHT22;3619;53.784;10.440;2022-10-31T08:57:55;13.20;99.90
7155;DHT22;3619;53.784;10.440;2022-10-31T09:00:23;13.20;99.90
7155;DHT22;3619;53.784;10.440;2022-10-31T09:02:55;13.30;99.90
7155;DHT22;3619;53.784;10.440;2022-10-31T09:05:23;13.40;99.90
7155;DHT22;3619;53.784;10.440;2022-10-31T09:07:55;13.50;99.90
7155;DHT22;3619;53.784;10.440;2022-10-31T09:10:23;13.50;99.90
7155;DHT22;3619;53.784;10.440;2022-10-31T09:12:54;13.50;99.90
7155;DHT22;3619;53.784;10.440;2022-10-31T09:15:32;13.50;99.90
7155;DHT22;3619;53.784;10.440;2022-10-31T09:17:59;13.50;99.90
7155;DHT22;3619;53.784;10.440;2022-10-31T09:20:27;13.50;99.90
7155;DHT22;3619;53.784;10.440;2022-10-31T09:23:00;13.30;99.90
7155;DHT22;3619;53.784;10.440;2022-10-31T09:25:27;13.40;99.90
7155;DHT22;3619;53.784;10.440;2022-10-31T09:27:56;13.50;99.90
7155;DHT22;3619;53.784;10.440;2022-10-31T09:30:27;13.60;99.90
7155;DHT22;3619;53.784;10.440;2022-10-31T09:32:55;13.70;99.90
7155;DHT22;3619;53.784;10.440;2022-10-31T09:35:22;13.80;99.90
7155;DHT22;3619;53.784;10.440;2022-10-31T09:37:53;13.80;99.90
7155;DHT22;3619;53.784;10.440;2022-10-31T09:40:22;13.80;99.90
7155;DHT22;3619;53.784;10.440;2022-10-31T09:42:58;13.80;99.90
7155;DHT22;3619;53.784;10.440;2022-10-31T09:45:32;13.90;99.90
7155;DHT22;3619;53.784;10.440;2022-10-31T09:48:11;13.90;99.90
7155;DHT22;3619;53.784;10.440;2022-10-31T09:50:44;13.90;99.90
7155;DHT22;3619;53.784;10.440;2022-10-31T09:53:21;13.90;99.90
7155;DHT22;3619;53.784;10.440;2022-10-31T09:55:52;14.10;99.90
7155;DHT22;3619;53.784;10.440;2022-10-31T09:58:24;14.00;99.90
7155;DHT22;3619;53.784;10.440;2022-10-31T10:00:52;14.00;99.90
7155;DHT22;3619;53.784;10.440;2022-10-31T10:03:28;13.90;99.90
7155;DHT22;3619;53.784;10.440;2022-10-31T10:06:04;13.90;99.90
7155;DHT22;3619;53.784;10.440;2022-10-31T10:08:34;13.90;99.90
7155;DHT22;3619;53.784;10.440;2022-10-31T10:11:22;14.00;99.90
7155;DHT22;3619;53.784;10.440;2022-10-31T10:14:01;14.10;99.90
7155;DHT22;3619;53.784;10.440;2022-10-31T10:16:42;13.90;99.90
7155;DHT22;3619;53.784;10.440;2022-10-31T10:19:29;13.80;99.90
7155;DHT22;3619;53.784;10.440;2022-10-31T10:22:01;13.90;99.90
7155;DHT22;3619;53.784;10.440;2022-10-31T10:24:54;14.00;99.90
7155;DHT22;3619;53.784;10.440;2022-10-31T10:27:29;14.00;99.90
7155;DHT22;3619;53.784;10.440;2022-10-31T10:30:02;14.10;99.90
7155;DHT22;3619;53.784;10.440;2022-10-31T10:32:40;14.10;99.90
7155;DHT22;3619;53.784;10.440;2022-10-31T10:35:16;14.20;99.90
7155;DHT22;3619;53.784;10.440;2022-10-31T10:37:44;14.10;99.90
7155;DHT22;3619;53.784;10.440;2022-10-31T10:40:18;13.80;99.90
7155;DHT22;3619;53.784;10.440;2022-10-31T10:42:57;13.90;99.90
7155;DHT22;3619;53.784;10.440;2022-10-31T10:45:57;14.00;99.90
7155;DHT22;3619;53.784;10.440;2022-10-31T10:48:46;13.90;99.90
7155;DHT22;3619;53.784;10.440;2022-10-31T10:51:23;14.00;99.90
7155;DHT22;3619;53.784;10.440;2022-10-31T10:54:03;13.80;99.90
7155;DHT22;3619;53.784;10.440;2022-10-31T10:56:39;13.80;99.90
7155;DHT22;3619;53.784;10.440;2022-10-31T10:59:13;13.90;99.90
7155;DHT22;3619;53.784;10.440;2022-10-31T11:01:43;14.00;99.90
7155;DHT22;3619;53.784;10.440;2022-10-31T11:04:27;14.00;99.90
7155;DHT22;3619;53.784;10.440;2022-10-31T11:07:01;14.00;99.90
7155;DHT22;3619;53.784;10.440;2022-10-31T11:09:28;14.00;99.90
7155;DHT22;3619;53.784;10.440;2022-10-31T11:11:56;13.90;99.90
7155;DHT22;3619;53.784;10.440;2022-10-31T11:14:26;13.80;99.90
7155;DHT22;3619;53.784;10.440;2022-10-31T11:17:07;13.70;99.90
7155;DHT22;3619;53.784;10.440;2022-10-31T11:19:36;13.70;99.90
7155;DHT22;3619;53.784;10.440;2022-10-31T11:22:07;13.60;99.90
7155;DHT22;3619;53.784;10.440;2022-10-31T11:24:38;13.50;99.90
7155;DHT22;3619;53.784;10.440;2022-10-31T11:27:14;13.70;99.90
7155;DHT22;3619;53.784;10.440;2022-10-31T11:29:43;13.80;99.90
7155;DHT22;3619;53.784;10.440;2022-10-31T11:32:19;14.00;99.90
7155;DHT22;3619;53.784;10.440;2022-10-31T11:34:47;14.00;99.90
7155;DHT22;3619;53.784;10.440;2022-10-31T11:37:18;14.00;99.90
7155;DHT22;3619;53.784;10.440;2022-10-31T11:39:49;14.00;99.90
7155;DHT22;3619;53.784;10.440;2022-10-31T11:42:21;14.20;99.90
7155;DHT22;3619;53.784;10.440;2022-10-31T11:44:51;14.40;99.90
7155;DHT22;3619;53.784;10.440;2022-10-31T11:47:24;14.30;99.90
7155;DHT22;3619;53.784;10.440;2022-10-31T11:49:51;14.10;99.90
7155;DHT22;3619;53.784;10.440;2022-10-31T11:52:21;14.10;99.90
7155;DHT22;3619;53.784;10.440;2022-10-31T11:54:53;14.00;99.90
7155;DHT22;3619;53.784;10.440;2022-10-31T11:57:25;14.00;99.90
7155;DHT22;3619;53.784;10.440;2022-10-31T11:59:55;14.20;99.90
7155;DHT22;3619;53.784;10.440;2022-10-31T12:02:23;14.30;99.90
7155;DHT22;3619;53.784;10.440;2022-10-31T12:04:57;14.30;99.90
7155;DHT22;3619;53.784;10.440;2022-10-31T12:07:25;14.40;99.90
7155;DHT22;3619;53.784;10.440;2022-10-31T12:09:51;14.50;99.90
7155;DHT22;3619;53.784;10.440;2022-10-31T12:12:47;14.70;99.90
7155;DHT22;3619;53.784;10.440;2022-10-31T12:15:29;14.90;99.90
7155;DHT22;3619;53.784;10.440;2022-10-31T12:21:20;15.30;99.90
7155;DHT22;3619;53.784;10.440;2022-10-31T12:24:00;15.60;99.90
7155;DHT22;3619;53.784;10.440;2022-10-31T12:26:44;15.80;99.90
7155;DHT22;3619;53.784;10.440;2022-10-31T12:29:28;15.90;99.90
7155;DHT22;3619;53.784;10.440;2022-10-31T12:32:20;15.90;99.90
7155;DHT22;3619;53.784;10.440;2022-10-31T12:37:52;15.60;99.90
7155;DHT22;3619;53.784;10.440;2022-10-31T12:40:35;15.60;99.90
7155;DHT22;3619;53.784;10.440;2022-10-31T12:43:19;15.60;99.90
7155;DHT22;3619;53.784;10.440;2022-10-31T12:45:54;15.60;99.90
7155;DHT22;3619;53.784;10.440;2022-10-31T12:48:46;15.70;99.90
7155;DHT22;3619;53.784;10.440;2022-10-31T12:51:23;15.90;99.90
7155;DHT22;3619;53.784;10.440;2022-10-31T12:54:10;16.00;99.90
7155;DHT22;3619;53.784;10.440;2022-10-31T12:56:47;16.00;99.90
7155;DHT22;3619;53.784;10.440;2022-10-31T12:59:20;15.80;99.90
7155;DHT22;3619;53.784;10.440;2022-10-31T13:01:51;15.70;99.90
7155;DHT22;3619;53.784;10.440;2022-10-31T13:04:33;15.70;99.90
7155;DHT22;3619;53.784;10.440;2022-10-31T13:07:04;15.50;99.90
7155;DHT22;3619;53.784;10.440;2022-10-31T13:09:38;15.50;99.90
7155;DHT22;3619;53.784;10.440;2022-10-31T13:12:09;15.30;99.90
7155;DHT22;3619;53.784;10.440;2022-10-31T13:14:39;15.20;99.90
7155;DHT22;3619;53.784;10.440;2022-10-31T13:17:12;15.20;99.90
7155;DHT22;3619;53.784;10.440;2022-10-31T13:19:44;15.20;99.90
7155;DHT22;3619;53.784;10.440;2022-10-31T13:22:17;15.10;99.90
7155;DHT22;3619;53.784;10.440;2022-10-31T13:24:50;15.10;99.90
7155;DHT22;3619;53.784;10.440;2022-10-31T13:27:22;15.20;99.90
7155;DHT22;3619;53.784;10.440;2022-10-31T13:29:58;15.20;99.90
7155;DHT22;3619;53.784;10.440;2022-10-31T13:32:35;15.20;99.90
7155;DHT22;3619;53.784;10.440;2022-10-31T13:35:07;15.30;99.90
7155;DHT22;3619;53.784;10.440;2022-10-31T13:37:43;15.30;99.90
7155;DHT22;3619;53.784;10.440;2022-10-31T13:40:19;15.30;99.90
7155;DHT22;3619;53.784;10.440;2022-10-31T13:42:55;15.30;99.90
7155;DHT22;3619;53.784;10.440;2022-10-31T13:45:25;15.30;99.90
7155;DHT22;3619;53.784;10.440;2022-10-31T13:47:58;15.30;99.90
7155;DHT22;3619;53.784;10.440;2022-10-31T13:50:27;15.30;99.90
7155;DHT22;3619;53.784;10.440;2022-10-31T13:53:20;15.30;99.90
7155;DHT22;3619;53.784;10.440;2022-10-31T13:55:49;15.30;99.90
7155;DHT22;3619;53.784;10.440;2022-10-31T13:58:25;15.30;99.90
7155;DHT22;3619;53.784;10.440;2022-10-31T14:01:05;15.20;99.90
7155;DHT22;3619;53.784;10.440;2022-10-31T14:03:40;15.20;99.90
7155;DHT22;3619;53.784;10.440;2022-10-31T14:06:10;15.20;99.90
7155;DHT22;3619;53.784;10.440;2022-10-31T14:08:40;15.20;99.90
7155;DHT22;3619;53.784;10.440;2022-10-31T14:11:08;15.30;99.90
7155;DHT22;3619;53.784;10.440;2022-10-31T14:13:38;15.40;99.90
7155;DHT22;3619;53.784;10.440;2022-10-31T14:16:18;15.60;99.90
7155;DHT22;3619;53.784;10.440;2022-10-31T14:18:50;15.70;99.90
7155;DHT22;3619;53.784;10.440;2022-10-31T14:21:28;15.80;99.90
7155;DHT22;3619;53.784;10.440;2022-10-31T14:23:57;15.90;99.90
7155;DHT22;3619;53.784;10.440;2022-10-31T14:26:32;15.90;99.90
7155;DHT22;3619;53.784;10.440;2022-10-31T14:29:01;16.00;99.90
7155;DHT22;3619;53.784;10.440;2022-10-31T14:31:35;16.00;99.90
7155;DHT22;3619;53.784;10.440;2022-10-31T14:34:18;16.00;99.90
7155;DHT22;3619;53.784;10.440;2022-10-31T14:36:56;15.90;99.90
7155;DHT22;3619;53.784;10.440;2022-10-31T14:39:31;15.80;99.90
7155;DHT22;3619;53.784;10.440;2022-10-31T14:42:14;15.70;99.90
7155;DHT22;3619;53.784;10.440;2022-10-31T14:45:23;15.60;99.90
7155;DHT22;3619;53.784;10.440;2022-10-31T14:48:03;15.50;99.90
7155;DHT22;3619;53.784;10.440;2022-10-31T14:50:40;15.20;99.90
7155;DHT22;3619;53.784;10.440;2022-10-31T14:53:14;15.10;99.90
7155;DHT22;3619;53.784;10.440;2022-10-31T14:55:48;15.00;99.90
7155;DHT22;3619;53.784;10.440;2022-10-31T14:58:20;14.90;99.90
7155;DHT22;3619;53.784;10.440;2022-10-31T15:00:48;14.90;99.90
7155;DHT22;3619;53.784;10.440;2022-10-31T15:03:21;14.70;99.90
7155;DHT22;3619;53.784;10.440;2022-10-31T15:05:51;14.60;99.90
7155;DHT22;3619;53.784;10.440;2022-10-31T15:08:33;14.50;99.90
7155;DHT22;3619;53.784;10.440;2022-10-31T15:11:09;14.40;99.90
7155;DHT22;3619;53.784;10.440;2022-10-31T15:13:42;14.40;99.90
7155;DHT22;3619;53.784;10.440;2022-10-31T15:16:13;14.20;99.90
7155;DHT22;3619;53.784;10.440;2022-10-31T15:18:47;14.10;99.90
7155;DHT22;3619;53.784;10.440;2022-10-31T15:21:15;14.00;99.90
7155;DHT22;3619;53.784;10.440;2022-10-31T15:23:44;13.90;99.90
7155;DHT22;3619;53.784;10.440;2022-10-31T15:26:17;13.90;99.90
7155;DHT22;3619;53.784;10.440;2022-10-31T15:28:44;13.90;99.90
7155;DHT22;3619;53.784;10.440;2022-10-31T15:31:15;13.90;99.90
7155;DHT22;3619;53.784;10.440;2022-10-31T15:33:46;13.90;99.90
7155;DHT22;3619;53.784;10.440;2022-10-31T15:36:19;13.90;99.90
7155;DHT22;3619;53.784;10.440;2022-10-31T15:38:52;13.90;99.90
7155;DHT22;3619;53.784;10.440;2022-10-31T15:41:29;13.90;99.90
7155;DHT22;3619;53.784;10.440;2022-10-31T15:44:01;13.90;99.90
7155;DHT22;3619;53.784;10.440;2022-10-31T15:46:28;13.90;99.90
7155;DHT22;3619;53.784;10.440;2022-10-31T15:48:56;13.90;99.90
7155;DHT22;3619;53.784;10.440;2022-10-31T15:51:28;13.90;99.90
7155;DHT22;3619;53.784;10.440;2022-10-31T15:53:59;13.90;99.90
7155;DHT22;3619;53.784;10.440;2022-10-31T15:56:28;13.80;99.90
7155;DHT22;3619;53.784;10.440;2022-10-31T15:58:58;13.80;99.90
7155;DHT22;3619;53.784;10.440;2022-10-31T16:01:26;13.90;99.90
7155;DHT22;3619;53.784;10.440;2022-10-31T16:04:03;13.90;99.90
7155;DHT22;3619;53.784;10.440;2022-10-31T16:06:31;13.90;99.90
7155;DHT22;3619;53.784;10.440;2022-10-31T16:09:00;13.90;99.90
7155;DHT22;3619;53.784;10.440;2022-10-31T16:11:34;13.90;99.90
7155;DHT22;3619;53.784;10.440;2022-10-31T16:14:04;13.80;99.90
7155;DHT22;3619;53.784;10.440;2022-10-31T16:16:41;13.80;99.90
7155;DHT22;3619;53.784;10.440;2022-10-31T16:19:16;13.70;99.90
7155;DHT22;3619;53.784;10.440;2022-10-31T16:21:45;13.70;99.90